Time;durP1;ratioP1;P1;durP2;ratioP2;P2;SDS_P1;SDS_P2;PMS_P1;PMS_P2;Temp;Humidity;BMP_temperature;BMP_pressure;BME280_temperature;BME280_humidity;BME280_pressure;Samples;Min_cycle;Max_cycle;Signal;HPM_P1;HPM_P2
2021/04/15 05:58:46;;;;;;;;;;;;;;;;;;;;;
2021/04/15 08:52:59;;;;;;;2.97;2.30;;;17.50;53.90;;;;;;4840167;29;20151;-79
2021/04/15 09:06:21;;;;;;;5.57;2.50;;;17.40;53.80;;;;;;4834663;29;20056;-78
2021/04/15 09:12:47;;;;;;;4.75;3.22;;;17.50;54.40;;;;;;4857585;29;20047;-77
2021/04/15 10:57:48;;;;;;;6.95;2.20;;;19.00;58.00;;;;;;4865602;29;20044;-79
2021/04/15 11:11:27;;;;;;;3.20;2.03;;;18.70;56.80;;;;;;4859274;29;20070;-77
2021/04/15 11:21:40;;;;;;;6.40;2.38;;;18.50;56.50;;;;;;4839507;29;20045;-77
2021/04/15 11:24:27;;;;;;;6.85;2.80;;;18.50;56.70;;;;;;4833555;29;20092;-79
2021/04/15 11:26:57;;;;;;;7.85;2.58;;;18.10;56.20;;;;;;4837978;29;20061;-78
2021/04/15 11:43:36;;;;;;;3.95;2.25;;;17.50;56.70;;;;;;4784826;30;20089;-76
2021/04/15 11:54:01;;;;;;;3.85;2.33;;;17.70;57.20;;;;;;4782590;29;20125;-76
2021/04/15 12:00:25;;;;;;;3.42;2.30;;;17.40;56.10;;;;;;4722075;30;20050;-78
2021/04/15 12:03:13;;;;;;;5.97;2.72;;;17.30;57.40;;;;;;4747281;30;20125;-78
2021/04/15 12:09:28;;;;;;;6.90;2.58;;;17.20;57.90;;;;;;4750364;30;20123;-77
2021/04/15 12:12:22;;;;;;;8.18;2.58;;;17.10;58.30;;;;;;4750783;30;20070;-78
2021/04/15 12:15:01;;;;;;;5.18;2.88;;;16.90;58.20;;;;;;4839555;29;20523;-78
2021/04/15 12:18:14;;;;;;;7.20;2.38;;;16.70;59.00;;;;;;4839102;29;20069;-78
2021/04/15 12:21:07;;;;;;;4.13;2.95;;;16.60;60.10;;;;;;4755974;30;20048;-78
2021/04/15 12:23:43;;;;;;;4.38;2.60;;;16.70;59.60;;;;;;4751452;30;20040;-80
2021/04/15 12:33:51;;;;;;;5.30;2.67;;;16.80;56.30;;;;;;4838915;29;20112;-79
2021/04/15 12:36:55;;;;;;;6.32;2.83;;;16.70;57.30;;;;;;4839046;29;20167;-79
2021/04/15 12:39:50;;;;;;;4.97;2.72;;;16.50;57.10;;;;;;4838843;29;20147;-80
2021/04/15 12:43:34;;;;;;;;;;;;;;;;;;;;;
2021/04/15 12:45:41;;;;;;;3.47;2.40;;;16.40;58.20;;;;;;4856314;29;20055;-77
2021/04/15 12:48:12;;;;;;;3.38;2.22;;;16.50;58.60;;;;;;4919026;29;20484;-79
2021/04/15 12:50:38;;;;;;;10.75;2.75;;;16.60;59.30;;;;;;4916019;29;20146;-79
2021/04/15 12:53:22;;;;;;;;;;;;;;;;;;;;;
2021/04/15 12:56:26;;;;;;;5.50;2.38;;;16.30;59.20;;;;;;4916011;29;20043;-78
2021/04/15 12:59:14;;;;;;;5.50;2.80;;;16.20;59.10;;;;;;4922845;29;20071;-79
2021/04/15 13:01:59;;;;;;;;;;;;;;;;;;;;;
2021/04/15 13:05:20;;;;;;;3.83;2.40;;;16.10;58.90;;;;;;4906567;29;20032;-78
2021/04/15 13:08:15;;;;;;;4.35;2.92;;;16.20;59.40;;;;;;4891049;29;20028;-78
2021/04/15 13:10:47;;;;;;;5.32;2.83;;;16.20;59.10;;;;;;4888132;29;20091;-78
2021/04/15 13:13:44;;;;;;;6.10;2.35;;;16.20;58.50;;;;;;4914788;29;20024;-80
2021/04/15 13:16:51;;;;;;;4.10;2.67;;;16.10;59.10;;;;;;4904047;29;20044;-80
2021/04/15 13:30:06;;;;;;;3.70;2.57;;;16.10;60.10;;;;;;4914872;29;20052;-78
2021/04/15 13:36:03;;;;;;;6.60;2.97;;;16.20;63.10;;;;;;4917687;29;20395;-78
2021/04/15 13:38:59;;;;;;;4.75;3.10;;;16.20;64.30;;;;;;4918286;29;20048;-77
2021/04/15 13:42:05;;;;;;;4.35;3.15;;;16.10;62.80;;;;;;4915317;29;20036;-78
2021/04/15 13:55:35;;;;;;;4.47;2.53;;;15.70;65.00;;;;;;4928754;29;20082;-79
2021/04/15 14:09:26;;;;;;;;;;;;;;;;;;;;;
2021/04/15 14:22:58;;;;;;;8.02;4.07;;;15.30;70.70;;;;;;4866168;29;20040;-78
2021/04/15 14:30:33;;;;;;;;;;;;;;;;;;;;;
2021/04/15 14:39:45;;;;;;;7.93;3.88;;;15.30;71.10;;;;;;4741875;30;20095;-80
2021/04/15 14:43:01;;;;;;;;;;;;;;;;;;;;;
2021/04/15 14:49:38;;;;;;;7.82;4.43;;;15.40;71.70;;;;;;4733135;30;20122;-84
2021/04/15 15:06:32;;;;;;;8.82;5.03;;;15.40;73.60;;;;;;4579882;31;20044;-80
2021/04/15 15:40:20;;;;;;;;;;;;;;;;;;;;;
2021/04/15 15:43:47;;;;;;;;;;;;;;;;;;;;;
2021/04/15 16:01:26;;;;;;;11.02;5.85;;;14.80;73.90;;;;;;4821536;29;20158;-80
2021/04/15 16:04:20;;;;;;;12.02;7.65;;;14.80;75.10;;;;;;4905727;29;20059;-84
2021/04/15 16:07:15;;;;;;;15.48;6.20;;;14.70;74.10;;;;;;4904113;29;20036;-80
2021/04/15 16:20:17;;;;;;;7.90;6.10;;;14.20;76.90;;;;;;4840932;29;20511;-80
2021/04/15 16:33:55;;;;;;;9.00;5.18;;;13.90;79.80;;;;;;4719636;30;20071;-89
2021/04/15 16:36:28;;;;;;;9.38;4.78;;;13.80;80.70;;;;;;4772565;29;20047;-85
2021/04/15 16:40:22;;;;;;;;;;;;;;;;;;;;;
2021/04/15 16:42:40;;;;;;;8.35;4.40;;;13.50;81.90;;;;;;4771890;29;20079;-83
2021/04/15 16:45:09;;;;;;;7.47;4.60;;;13.30;81.50;;;;;;4778030;29;20057;-79
2021/04/15 16:47:35;;;;;;;9.00;4.72;;;13.20;82.30;;;;;;4870130;29;20106;-79
2021/04/15 16:50:02;;;;;;;9.07;4.32;;;13.10;82.20;;;;;;4907241;29;20124;-81
2021/04/15 16:52:28;;;;;;;10.27;4.95;;;13.00;83.30;;;;;;4916500;29;20036;-82
2021/04/15 16:54:54;;;;;;;9.60;4.57;;;13.00;84.10;;;;;;4928379;29;20520;-80
2021/04/15 16:57:20;;;;;;;8.38;4.75;;;12.90;84.60;;;;;;4913920;29;20036;-83
2021/04/15 16:59:46;;;;;;;10.85;4.80;;;12.90;84.30;;;;;;4915022;29;20068;-83
2021/04/15 17:02:15;;;;;;;6.68;4.55;;;12.80;84.40;;;;;;4913263;29;20447;-82
2021/04/15 17:04:46;;;;;;;8.40;4.97;;;12.70;84.80;;;;;;4915880;29;20040;-81
2021/04/15 17:07:16;;;;;;;9.93;5.00;;;12.70;85.10;;;;;;4911733;29;20060;-82
2021/04/15 17:09:43;;;;;;;13.55;5.05;;;12.60;85.20;;;;;;4904071;29;20048;-80
2021/04/15 17:12:11;;;;;;;10.13;4.85;;;12.60;85.70;;;;;;4914271;29;20039;-82
2021/04/15 17:14:37;;;;;;;12.82;5.53;;;12.50;85.30;;;;;;4913923;29;20031;-81
2021/04/15 17:17:06;;;;;;;6.43;5.25;;;12.40;85.50;;;;;;4903967;29;20032;-83
2021/04/15 17:19:38;;;;;;;7.97;4.70;;;12.40;86.00;;;;;;4905913;29;20040;-83
2021/04/15 17:22:10;;;;;;;11.93;5.13;;;12.30;86.60;;;;;;4913425;29;20485;-84
2021/04/15 17:24:36;;;;;;;7.00;4.88;;;12.30;86.30;;;;;;4898001;29;20123;-83
2021/04/15 17:27:03;;;;;;;10.55;4.78;;;12.20;86.70;;;;;;4907670;29;20029;-82
2021/04/15 17:29:29;;;;;;;11.25;4.57;;;12.30;87.40;;;;;;4904636;29;20056;-81
2021/04/15 17:31:54;;;;;;;7.60;4.57;;;12.10;87.10;;;;;;4908429;29;20039;-83
2021/04/15 17:34:21;;;;;;;7.57;4.82;;;12.10;87.20;;;;;;4890275;29;20405;-82
2021/04/15 17:36:47;;;;;;;7.63;3.85;;;12.00;88.20;;;;;;4894916;29;20040;-83
2021/04/15 17:39:14;;;;;;;8.70;4.60;;;12.00;89.20;;;;;;4914634;29;20024;-81
2021/04/15 17:57:01;;;;;;;7.53;4.45;;;11.80;90.10;;;;;;4752175;30;20067;-82
2021/04/15 17:59:36;;;;;;;8.75;4.22;;;11.80;89.80;;;;;;4749670;30;20044;-81
2021/04/15 18:15:49;;;;;;;9.73;5.72;;;11.50;90.30;;;;;;4667518;30;20693;-81
2021/04/15 18:18:15;;;;;;;11.52;5.97;;;11.40;90.80;;;;;;4868809;23;20043;-74
2021/04/15 18:20:43;;;;;;;12.25;5.18;;;11.30;90.90;;;;;;4953626;28;20114;-74
2021/04/15 18:23:10;;;;;;;7.47;5.03;;;11.20;91.20;;;;;;4948341;28;20117;-74
2021/04/15 18:25:37;;;;;;;13.50;5.07;;;11.20;91.50;;;;;;4938413;28;20040;-74
2021/04/15 18:28:04;;;;;;;8.15;4.88;;;11.10;91.90;;;;;;4939954;28;20032;-74
2021/04/15 18:30:36;;;;;;;10.25;5.00;;;11.00;92.00;;;;;;4943614;28;20052;-74
2021/04/15 18:33:03;;;;;;;12.93;4.53;;;11.00;92.30;;;;;;4941275;29;20070;-75
2021/04/15 18:35:29;;;;;;;8.93;4.68;;;11.00;92.90;;;;;;4942500;29;20055;-76
2021/04/15 18:37:56;;;;;;;8.13;5.10;;;11.00;92.30;;;;;;4940097;29;20027;-75
2021/04/15 18:40:29;;;;;;;9.57;5.78;;;11.00;92.20;;;;;;4945881;28;20035;-76
2021/04/15 18:42:55;;;;;;;8.95;5.20;;;10.90;92.00;;;;;;4948760;28;20043;-75
2021/04/15 18:45:22;;;;;;;8.50;4.47;;;10.90;92.10;;;;;;4955113;28;20035;-75
2021/04/15 18:47:48;;;;;;;11.10;4.85;;;10.90;92.00;;;;;;4950155;29;20154;-74
2021/04/15 18:50:19;;;;;;;12.23;7.75;;;10.80;92.10;;;;;;4954582;28;20197;-74
2021/04/15 18:52:45;;;;;;;12.68;5.90;;;10.80;92.20;;;;;;4950394;28;20151;-73
2021/04/15 18:55:12;;;;;;;11.98;7.32;;;10.80;92.20;;;;;;4932377;29;20142;-74
2021/04/15 18:57:37;;;;;;;13.45;5.60;;;10.80;92.20;;;;;;4949784;28;20030;-74
2021/04/15 19:00:07;;;;;;;14.95;6.30;;;10.80;92.30;;;;;;4946399;28;20031;-74
2021/04/15 19:02:34;;;;;;;10.60;6.68;;;10.80;92.40;;;;;;4923087;29;20031;-75
2021/04/15 19:05:00;;;;;;;13.45;7.05;;;10.80;92.60;;;;;;4942091;28;20039;-74
2021/04/15 19:07:26;;;;;;;15.38;8.65;;;10.80;92.40;;;;;;4947085;28;20518;-74
2021/04/15 19:09:52;;;;;;;11.82;6.55;;;10.70;92.50;;;;;;4951454;28;20063;-72
2021/04/15 19:12:17;;;;;;;10.77;6.38;;;10.70;92.40;;;;;;4954529;28;20035;-73
2021/04/15 19:14:43;;;;;;;21.00;12.77;;;10.70;92.30;;;;;;4950619;28;20062;-73
2021/04/15 19:17:09;;;;;;;14.88;8.82;;;10.60;92.50;;;;;;4952847;29;20093;-72
2021/04/15 19:19:35;;;;;;;17.88;9.38;;;10.60;92.10;;;;;;4956474;29;20035;-72
2021/04/15 19:22:01;;;;;;;15.50;7.25;;;10.60;92.20;;;;;;4944046;29;20044;-71
2021/04/15 19:24:27;;;;;;;13.48;9.63;;;10.60;92.10;;;;;;4948583;29;20031;-72
2021/04/15 19:26:55;;;;;;;10.63;6.53;;;10.50;92.20;;;;;;4956407;28;20511;-72
2021/04/15 19:29:21;;;;;;;9.73;6.60;;;10.50;92.20;;;;;;4957752;28;20467;-75
2021/04/15 19:31:47;;;;;;;13.93;8.18;;;10.50;92.30;;;;;;4952583;28;20039;-74
2021/04/15 19:34:14;;;;;;;12.48;8.23;;;10.40;92.40;;;;;;4955521;28;20031;-75
2021/04/15 19:36:39;;;;;;;26.50;14.32;;;10.40;92.80;;;;;;4955137;28;20075;-74
2021/04/15 19:39:09;;;;;;;18.00;10.65;;;10.40;93.20;;;;;;4951267;28;20062;-73
2021/04/15 19:41:35;;;;;;;31.25;20.08;;;10.40;93.30;;;;;;4938663;29;20035;-74
2021/04/15 19:44:01;;;;;;;18.63;10.50;;;10.30;93.60;;;;;;4955606;29;20080;-75
2021/04/15 19:46:27;;;;;;;20.38;12.07;;;10.30;94.00;;;;;;4955360;29;20420;-74
2021/04/15 19:48:53;;;;;;;26.08;13.55;;;10.20;93.70;;;;;;4955111;29;20550;-75
2021/04/15 19:51:19;;;;;;;40.28;21.40;;;10.20;94.10;;;;;;4954349;29;20055;-74
2021/04/15 19:53:45;;;;;;;17.88;9.50;;;10.20;94.50;;;;;;4956713;28;20073;-74
2021/04/15 19:56:14;;;;;;;14.10;8.90;;;10.10;94.70;;;;;;4964541;28;20900;-74
2021/04/15 19:58:46;;;;;;;16.15;8.50;;;10.10;94.90;;;;;;4953190;29;20480;-73
2021/04/15 20:01:23;;;;;;;20.00;9.85;;;10.10;95.10;;;;;;4960429;28;20066;-74
2021/04/15 20:03:51;;;;;;;16.08;9.20;;;10.10;95.30;;;;;;4957986;28;20089;-75
2021/04/15 20:06:17;;;;;;;17.58;9.43;;;10.00;95.70;;;;;;4954918;29;20043;-74
2021/04/15 20:08:46;;;;;;;14.55;9.50;;;10.00;96.10;;;;;;4954017;29;20031;-74
2021/04/15 20:11:21;;;;;;;13.73;9.32;;;10.00;96.70;;;;;;4954692;29;20034;-73
2021/04/15 20:13:48;;;;;;;25.80;9.23;;;10.00;97.10;;;;;;4938683;28;20031;-75
2021/04/15 20:16:15;;;;;;;18.80;10.43;;;10.00;97.50;;;;;;4960671;28;20037;-75
2021/04/15 20:18:42;;;;;;;17.40;9.80;;;9.90;97.90;;;;;;4952706;29;20086;-75
2021/04/15 20:21:11;;;;;;;19.98;10.05;;;9.90;98.50;;;;;;4954787;29;20536;-76
2021/04/15 20:23:37;;;;;;;23.17;12.35;;;9.90;98.90;;;;;;4955173;29;20047;-75
2021/04/15 20:26:04;;;;;;;33.38;17.80;;;9.80;99.40;;;;;;4942750;29;20027;-75
2021/04/15 20:28:30;;;;;;;25.27;13.68;;;9.80;99.80;;;;;;4955576;29;20043;-75
2021/04/15 20:30:56;;;;;;;25.13;10.50;;;9.70;99.90;;;;;;4957970;28;20079;-72
2021/04/15 20:33:26;;;;;;;26.20;14.73;;;9.70;99.90;;;;;;4963533;28;20041;-75
2021/04/15 20:35:52;;;;;;;24.80;12.68;;;9.60;99.90;;;;;;4959812;28;20384;-74
2021/04/15 20:38:21;;;;;;;22.67;10.07;;;9.60;99.90;;;;;;4955407;29;20523;-74
2021/04/15 20:40:47;;;;;;;22.05;9.98;;;9.60;99.90;;;;;;4954785;29;20504;-75
2021/04/15 20:43:14;;;;;;;19.98;9.98;;;9.50;99.90;;;;;;4955394;29;20070;-73
2021/04/15 20:45:40;;;;;;;20.83;10.00;;;9.40;99.90;;;;;;4955198;29;20055;-74
2021/04/15 20:48:07;;;;;;;18.60;10.32;;;9.20;99.90;;;;;;4955593;29;20508;-75
2021/04/15 20:50:35;;;;;;;17.40;9.90;;;9.10;99.90;;;;;;4954234;29;20471;-72
2021/04/15 20:53:02;;;;;;;17.77;10.15;;;9.00;99.90;;;;;;4939972;28;20115;-74
2021/04/15 20:55:28;;;;;;;28.05;18.42;;;8.90;99.90;;;;;;4962023;28;20027;-72
2021/04/15 20:57:54;;;;;;;15.40;9.82;;;8.80;99.90;;;;;;4957147;28;20047;-74
2021/04/15 21:00:26;;;;;;;20.67;11.68;;;8.80;99.90;;;;;;4955634;28;20047;-74
2021/04/15 21:02:52;;;;;;;44.67;20.80;;;8.80;99.90;;;;;;4962148;28;20051;-73
2021/04/15 21:05:18;;;;;;;22.48;11.35;;;8.70;99.90;;;;;;4953829;29;20508;-74
2021/04/15 21:07:45;;;;;;;19.67;11.20;;;8.60;99.90;;;;;;4953597;29;20070;-75
2021/04/15 21:10:14;;;;;;;29.13;8.88;;;8.60;99.90;;;;;;4953673;29;20047;-74
2021/04/15 21:12:41;;;;;;;15.63;9.15;;;8.60;99.90;;;;;;4933674;29;20429;-72
2021/04/15 21:15:07;;;;;;;15.77;9.27;;;8.60;99.90;;;;;;4958128;28;20118;-72
2021/04/15 21:17:33;;;;;;;19.20;9.55;;;8.60;99.90;;;;;;4965508;28;20070;-74
2021/04/15 21:19:59;;;;;;;15.95;9.35;;;8.50;99.90;;;;;;4954061;28;20066;-72
2021/04/15 21:22:24;;;;;;;19.55;9.88;;;8.50;99.90;;;;;;4954103;29;20035;-75
2021/04/15 21:24:50;;;;;;;26.80;9.75;;;8.50;99.90;;;;;;4954305;29;20032;-75
2021/04/15 21:27:16;;;;;;;16.98;9.07;;;8.50;99.90;;;;;;4953902;28;20024;-75
2021/04/15 21:29:41;;;;;;;15.00;8.98;;;8.50;99.90;;;;;;4954064;29;20054;-74
2021/04/15 21:32:07;;;;;;;19.30;9.70;;;8.50;99.90;;;;;;4954003;29;20027;-76
2021/04/15 21:34:37;;;;;;;15.73;9.27;;;8.50;99.90;;;;;;4955759;28;20068;-75
2021/04/15 21:37:04;;;;;;;17.95;9.65;;;8.50;99.90;;;;;;4962954;28;20035;-74
2021/04/15 21:39:30;;;;;;;15.90;9.55;;;8.60;99.90;;;;;;4953639;29;20182;-71
2021/04/15 21:41:56;;;;;;;15.18;8.57;;;8.50;99.90;;;;;;4953148;29;20576;-75
2021/04/15 21:44:22;;;;;;;14.18;7.75;;;8.50;99.90;;;;;;4954306;29;20035;-75
2021/04/15 21:46:48;;;;;;;14.02;7.80;;;8.40;99.90;;;;;;4953558;29;20360;-75
2021/04/15 21:49:14;;;;;;;14.00;8.13;;;8.40;99.90;;;;;;4953867;29;20039;-75
2021/04/15 21:51:39;;;;;;;13.00;7.25;;;8.30;99.90;;;;;;4952474;29;20043;-75
2021/04/15 21:54:05;;;;;;;13.38;7.72;;;8.30;99.90;;;;;;4953314;29;20024;-74
2021/04/15 21:56:32;;;;;;;15.43;6.75;;;8.20;99.90;;;;;;4953357;29;20150;-73
2021/04/15 21:58:57;;;;;;;12.00;7.15;;;8.10;99.90;;;;;;4936573;29;20384;-75
2021/04/15 22:01:23;;;;;;;14.80;7.18;;;8.10;99.90;;;;;;4959708;28;20037;-75
2021/04/15 22:03:49;;;;;;;14.50;6.65;;;8.00;99.90;;;;;;4957449;28;20043;-74
2021/04/15 22:06:24;;;;;;;12.55;7.68;;;7.90;99.90;;;;;;4953361;29;20074;-75
2021/04/15 22:08:54;;;;;;;16.55;7.40;;;7.90;99.90;;;;;;4953670;29;20496;-76
2021/04/15 22:11:24;;;;;;;15.07;6.90;;;7.80;99.90;;;;;;4940452;29;20043;-74
2021/04/15 22:13:51;;;;;;;13.20;6.80;;;7.80;99.90;;;;;;4953523;29;20432;-75
2021/04/15 22:16:19;;;;;;;13.60;6.82;;;7.80;99.90;;;;;;4961876;28;20027;-76
2021/04/15 22:18:50;;;;;;;14.90;7.47;;;7.70;99.90;;;;;;4957242;28;20050;-75
2021/04/15 22:21:37;;;;;;;14.05;7.15;;;7.70;99.90;;;;;;4936082;29;20496;-76
2021/04/15 22:24:14;;;;;;;12.35;7.47;;;7.70;99.90;;;;;;4953140;29;20042;-75
2021/04/15 22:26:41;;;;;;;11.63;6.57;;;7.70;99.90;;;;;;4953159;29;20043;-75
2021/04/15 22:29:17;;;;;;;10.13;6.68;;;7.60;99.90;;;;;;4953628;29;20027;-74
2021/04/15 22:31:47;;;;;;;13.50;7.22;;;7.60;99.90;;;;;;4953442;29;20094;-73
2021/04/15 22:34:15;;;;;;;12.75;6.95;;;7.50;99.90;;;;;;4953041;29;20039;-75
2021/04/15 22:36:41;;;;;;;11.73;6.90;;;7.50;99.90;;;;;;4953280;28;20467;-74
2021/04/15 22:39:07;;;;;;;14.07;7.25;;;7.50;99.90;;;;;;4956600;29;20038;-75
2021/04/15 22:41:34;;;;;;;13.60;7.68;;;7.50;99.90;;;;;;4955524;29;20039;-75
2021/04/15 22:43:59;;;;;;;12.55;6.65;;;7.40;99.90;;;;;;4936633;29;20442;-75
2021/04/15 22:46:25;;;;;;;10.10;6.97;;;7.40;99.90;;;;;;4952072;29;20123;-75
2021/04/15 22:48:51;;;;;;;9.80;6.85;;;7.30;99.90;;;;;;4957066;29;20031;-75
2021/04/15 22:51:17;;;;;;;11.45;6.70;;;7.40;99.90;;;;;;4956652;29;20043;-74
2021/04/15 22:53:43;;;;;;;15.68;6.38;;;7.40;99.90;;;;;;4956411;29;20027;-75
2021/04/15 22:56:09;;;;;;;11.98;7.00;;;7.30;99.90;;;;;;4956439;29;20433;-75
2021/04/15 22:58:38;;;;;;;9.45;6.13;;;7.30;99.90;;;;;;4956630;29;20058;-75
2021/04/15 23:01:27;;;;;;;15.23;5.82;;;7.30;99.90;;;;;;4956610;29;20027;-75
2021/04/15 23:03:54;;;;;;;14.18;6.22;;;7.30;99.90;;;;;;4956577;29;20456;-74
2021/04/15 23:06:21;;;;;;;11.95;6.30;;;7.30;99.90;;;;;;4956796;29;20038;-73
2021/04/15 23:08:50;;;;;;;10.73;6.55;;;7.30;99.90;;;;;;4956703;29;20042;-75
2021/04/15 23:11:16;;;;;;;12.70;6.63;;;7.30;99.90;;;;;;4956318;29;20071;-74
2021/04/15 23:13:41;;;;;;;13.68;5.78;;;7.30;99.90;;;;;;4956595;29;20593;-72
2021/04/15 23:16:07;;;;;;;9.95;5.93;;;7.30;99.90;;;;;;4956473;29;20058;-76
2021/04/15 23:18:33;;;;;;;13.85;5.60;;;7.30;99.90;;;;;;4956302;29;20043;-74
2021/04/15 23:21:01;;;;;;;9.02;5.88;;;7.30;99.90;;;;;;4955509;29;20031;-74
2021/04/15 23:23:28;;;;;;;10.02;6.03;;;7.30;99.90;;;;;;4956282;29;20031;-74
2021/04/15 23:25:54;;;;;;;13.35;6.00;;;7.30;99.90;;;;;;4956356;29;20031;-74
2021/04/15 23:28:22;;;;;;;12.10;5.32;;;7.20;99.90;;;;;;4956474;29;20019;-75
2021/04/15 23:30:48;;;;;;;8.63;5.55;;;7.20;99.90;;;;;;4956326;29;20035;-75
2021/04/15 23:33:14;;;;;;;13.40;6.28;;;7.20;99.90;;;;;;4956221;29;20089;-76
2021/04/15 23:35:40;;;;;;;9.77;5.78;;;7.20;99.90;;;;;;4956096;29;20114;-76
2021/04/15 23:38:09;;;;;;;13.57;6.10;;;7.20;99.90;;;;;;4956286;29;20684;-74
2021/04/15 23:40:38;;;;;;;19.88;6.55;;;7.20;99.90;;;;;;4955959;29;20067;-75
2021/04/15 23:43:05;;;;;;;10.90;6.70;;;7.10;99.90;;;;;;4955816;29;20035;-74
2021/04/15 23:45:31;;;;;;;12.77;6.43;;;7.10;99.90;;;;;;4938922;29;20032;-74
2021/04/15 23:47:57;;;;;;;7.70;6.22;;;7.10;99.90;;;;;;4955973;29;20027;-75
2021/04/15 23:50:27;;;;;;;10.35;6.80;;;7.00;99.90;;;;;;4955122;28;20043;-74
2021/04/15 23:52:52;;;;;;;10.57;6.13;;;7.00;99.90;;;;;;4955453;29;20043;-74
2021/04/15 23:55:19;;;;;;;13.38;6.10;;;7.00;99.90;;;;;;4955750;29;20031;-74
2021/04/15 23:57:45;;;;;;;14.38;6.43;;;7.10;99.90;;;;;;4955635;29;20372;-73
